Pagrindinis puslapis
METAR-TAF:

METAR-TAF

Oro uostai :

Kristianstadas, Švedija

platuma: 55-55N, ilguma: 014-05E, Aukštis: 23 m

Dabartinis oras

Ataskaita buvo paskelbta 18 minutes, ne 02:50 UTC
Vėjas 9 kt iš Pietų/Pietryčių
Temperatūra 5°C
Drėgmė 81%
Slėgis 986 hPa
Matomumas 10 km arba daugiau
dulksna

METAR: ESMK 220250Z AUTO 16009KT 9999 -DZ FEW037/// 05/02 Q0986

Laikas: 04:08 (03:08 UTC)

Prognozė

Ataskaita buvo paskelbta 16 valandos ir 3 minutes, ne 11:05 UTC
Prognozė galioja nuo 21 metu 12 UTC su 21 metu 16 UTC
Vėjas 15 kt iš Pietų/Pietvakarių su gūsio iki 30 kt
Matomumas 10 km arba daugiau
Su prošvaistėmis ne aukštis 1200 ft
lietus, dulksna
Tapsmas
nuo 21 metu 12 UTC su 21 metu 13 UTC
Vėjas 12 kt iš Pietų/Pietvakarių
Išsisklaidę debesys ne aukštis 2000 ft

TAF: ESMK 211105Z 2112/2116 20015G30KT 9999 RADZ BKN012 BECMG 2112/2113 21012KT NSW SCT020

Orai ataskaitas ir orų prognozės (METAR, TAF).

turimą stotys yra geltonos ir raudonos taškus žemėlapyje.

Perkelti pele per norėdami pamatyti stoties vardą.

Tada spustelėkite, norėdami matyti oro stebėjimo ir prognozės.

Norėdami pakeisti žemėlapį: spustelėkite ant žalios mygtukų su juodo kryžiaus žemyn,; žalią mygtuką su brūkšneliu, jei norite nutolinti; arba žalių rodyklių gretimoms žemėlapius.


METAR-TAF: